MI26 weather

Hynes Field
Hartland, Michigan, United States

Public forecast

Using degrees Fahrenheit for public forecast. Weather courtesy of forecast.io.

METAR (pilot weather report)

Closest report is Livingston County Spencer J. Hardy Airport, 11.1 nm (20.5 km) W. Retrieved 2019/09/19 01:36 UTC (0 seconds ago):

KOZW 190136Z AUTO 12004KT 10SM CLR 18/11 A3018 RMK AO2 T01820112

TAF (pilot weather forecast)

Forecast is more than 12 hours old.

Closest forecast is Oakland County International Airport, 14.2 nm (26.3 km) ENE. Retrieved 2019/09/18 00:28 UTC (1 day ago):

TAF KPTK 182325Z 1900/1924 12005KT P6SM BKN250 FM191000 VRB03KT 5SM BR SCT250 FM191300 15007KT P6SM SCT250 FM192200 15005KT P6SM SCT050